Leeds And Bradford, United Kingdom

12:54 PM BST on September 02, 2014 (GMT +0100)
Yeadon, Leeds | Change Station
CLOSE
Current Station
Personal Weather Station
Location: Yeadon,
Elevation: 561 ft
Nearby Weather Stations

Elev 561 ft 53.86 °N, 1.68 °W | Updated 9 seconds ago

Scattered Clouds
Scattered Clouds
76.6 °F
Feels Like 78 °F
N
0.7
Wind Variable Wind from North
Gusts 1.6 mph

Today
High -- | Low -- °F
--% Chance of Precip.
Yesterday
High -- | Low -- °F
Precip. -- in
6:16 AM 7:54 PM
Waxing Crescent, 50% visible
Pressure 30.27 in
Visibility 6.2 miles
Clouds Scattered Clouds 3500 ft
Heat Index 78 °F
Dew Point 54 °F
Humidity 45%
Rainfall 0.00 in
Snow Depth Not available.
UV 5 out of 12
Pollen Not available.
Air Quality Not available.
Flu Activity Not available.
METAR EGNM 021120Z 10004KT 050V140 9999 SCT035 17/10 Q1025

More Conditions Fewer Conditions

Pressure 30.27 in
Visibility 6.2 miles
Clouds Scattered Clouds 3500 ft
Heat Index 78 °F
Dew Point 54 °F
Humidity 45%
Rainfall 0.00 in
Snow Depth Not available.
UV 5 out of 12
Pollen Not available.
Air Quality Not available.
Flu Activity Not available.
METAR EGNM 021120Z 10004KT 050V140 9999 SCT035 17/10 Q1025

More Conditions Fewer Conditions

10-Day Weather Forecast

Almanac

Astronomy

Sep. 02, 2014 Rise Set
Actual Time 6:16 AM BST 7:54 PM BST
Civil Twilight 5:39 AM BST 8:31 PM BST
Nautical Twilight 4:53 AM BST 9:17 PM BST
Astronomical Twilight 4:01 AM BST 10:08 PM BST
Moon 2:49 PM BST 11:31 PM BST
Length of Visible Light 14h 52m
Length of Day
13h 38m
Tomorrow will be 4m 11s shorter.
Waxing Crescent, 50% of the Moon is Illuminated
Today
Waxing Crescent
Sep 8
Full
Sep 15
Last Quarter
Sep 24
New
Oct 1
First Quarter

Yesterday's Extremes

Country Highs Country Lows

Community

WunderPhotos

Upload Photos

1,749,621 photos uploaded!

WunderBlogs® & News

By Dr. Jeff Masters
Director of Meteorology, Weather Underground
By Kari Strenfel
Meteorologist, Weather Underground
By Christopher C. Burt
Weather Historian, Weather Underground
September 2, 2014
September 2, 2014
September 2, 2014

Nearby

Snow Depth

Not available.

Earthquake Activity

City Distance Mag. Time & Date
No recent earthquake activity has been reported nearby.
Minimum magnitude displayed is 2.5.

Coastal Water Temperatures

Place Temperature
No Stations Reporting

Nearby Weather Stations